createdAt,value
2022-12-27T00:00:22.755Z,988.40
2022-12-27T00:01:22.717Z,988.45
2022-12-27T00:02:22.818Z,988.44
2022-12-27T00:03:22.760Z,988.42
2022-12-27T00:04:22.686Z,988.45
2022-12-27T00:05:22.648Z,988.51
2022-12-27T00:06:22.659Z,988.46
2022-12-27T00:07:22.644Z,988.55
2022-12-27T00:08:22.668Z,988.51
2022-12-27T00:09:22.618Z,988.59
2022-12-27T00:10:22.611Z,988.53
2022-12-27T00:11:22.618Z,988.54
2022-12-27T00:12:22.606Z,988.62
2022-12-27T00:13:22.560Z,988.63
2022-12-27T00:14:22.566Z,988.72
2022-12-27T00:15:22.544Z,988.73
2022-12-27T00:16:22.633Z,988.86
2022-12-27T00:17:22.551Z,988.83
2022-12-27T00:18:22.518Z,988.83
2022-12-27T00:19:22.500Z,988.88
2022-12-27T00:20:22.530Z,988.91
2022-12-27T00:21:22.480Z,988.97
2022-12-27T00:22:22.498Z,989.01
2022-12-27T00:23:22.482Z,989.05
2022-12-27T00:24:22.441Z,989.13
2022-12-27T00:25:22.440Z,989.09
2022-12-27T00:26:22.420Z,989.15
2022-12-27T00:27:22.424Z,989.14
2022-12-27T00:28:22.444Z,989.11
2022-12-27T00:29:22.399Z,989.19
2022-12-27T00:30:22.387Z,989.21
2022-12-27T00:31:22.430Z,989.20
2022-12-27T00:32:22.357Z,989.26
2022-12-27T00:33:22.377Z,989.27
2022-12-27T00:34:22.358Z,989.27
2022-12-27T00:35:22.353Z,989.30
2022-12-27T00:36:22.350Z,989.28
2022-12-27T00:37:22.344Z,989.31
2022-12-27T00:38:22.328Z,989.32
2022-12-27T00:39:22.303Z,989.35
2022-12-27T00:40:22.263Z,989.38
2022-12-27T00:41:22.293Z,989.35
2022-12-27T00:42:22.243Z,989.34
2022-12-27T00:43:22.256Z,989.35
2022-12-27T00:44:22.242Z,989.37
2022-12-27T00:45:22.269Z,989.32
2022-12-27T00:46:22.218Z,989.38
2022-12-27T00:47:22.230Z,989.39
2022-12-27T00:48:22.180Z,989.42
2022-12-27T00:49:22.221Z,989.45
2022-12-27T00:50:22.166Z,989.51
2022-12-27T00:51:22.191Z,989.46
2022-12-27T00:52:22.144Z,989.47
2022-12-27T00:53:22.147Z,989.50
2022-12-27T00:54:22.148Z,989.52
2022-12-27T00:55:22.130Z,989.57
2022-12-27T00:56:22.103Z,989.58
2022-12-27T00:57:22.113Z,989.58
2022-12-27T00:58:22.076Z,989.59
2022-12-27T00:59:22.087Z,989.63
2022-12-27T01:00:22.098Z,989.61
2022-12-27T01:01:22.169Z,989.64
2022-12-27T01:02:22.072Z,989.64
2022-12-27T01:03:22.111Z,989.66
2022-12-27T01:04:22.039Z,989.69
2022-12-27T01:05:22.047Z,989.68
2022-12-27T01:06:22.059Z,989.69
2022-12-27T01:07:22.008Z,989.71
2022-12-27T01:08:21.989Z,989.70
2022-12-27T01:09:21.985Z,989.78
2022-12-27T01:10:21.954Z,989.73
2022-12-27T01:11:21.962Z,989.78
2022-12-27T01:12:21.960Z,989.76
2022-12-27T01:13:21.956Z,989.74
2022-12-27T01:14:21.936Z,989.76
2022-12-27T01:15:21.923Z,989.74
2022-12-27T01:16:21.975Z,989.73
2022-12-27T01:17:21.918Z,989.76
2022-12-27T01:18:21.880Z,989.79
2022-12-27T01:19:21.877Z,989.80
2022-12-27T01:20:21.853Z,989.84
2022-12-27T01:21:21.872Z,989.86
2022-12-27T01:22:21.852Z,989.88
2022-12-27T01:23:21.840Z,989.92
2022-12-27T01:24:21.808Z,989.95
2022-12-27T01:25:21.818Z,989.94
2022-12-27T01:26:21.796Z,989.97
2022-12-27T01:27:21.821Z,989.99
2022-12-27T01:28:21.784Z,990.01
2022-12-27T01:29:21.784Z,990.01
2022-12-27T01:30:21.753Z,990.03
2022-12-27T01:31:21.937Z,990.07
2022-12-27T01:32:21.739Z,990.09
2022-12-27T01:33:21.753Z,990.11
2022-12-27T01:34:21.701Z,990.15
2022-12-27T01:35:21.709Z,990.21
2022-12-27T01:36:21.691Z,990.22
2022-12-27T01:37:21.701Z,990.26
2022-12-27T01:38:21.705Z,990.30
2022-12-27T01:39:21.685Z,990.30
2022-12-27T01:40:21.667Z,990.34
2022-12-27T01:41:21.649Z,990.39
2022-12-27T01:42:21.627Z,990.40
2022-12-27T01:43:21.641Z,990.45
2022-12-27T01:44:21.621Z,990.48
2022-12-27T01:45:21.649Z,990.52
2022-12-27T01:46:21.588Z,990.57
2022-12-27T01:47:21.616Z,990.59
2022-12-27T01:48:21.578Z,990.60
2022-12-27T01:49:21.580Z,990.58
2022-12-27T01:50:21.594Z,990.58
2022-12-27T01:51:21.553Z,990.59
2022-12-27T01:52:21.532Z,990.62
2022-12-27T01:53:21.525Z,990.65
2022-12-27T01:54:21.509Z,990.65
2022-12-27T01:55:21.523Z,990.66
2022-12-27T01:56:21.478Z,990.68
2022-12-27T01:57:21.522Z,990.65
2022-12-27T01:58:21.460Z,990.70
2022-12-27T01:59:21.476Z,990.69
2022-12-27T02:00:21.485Z,990.68
2022-12-27T02:01:21.619Z,990.69
2022-12-27T02:02:21.488Z,990.71
2022-12-27T02:03:21.580Z,990.72
2022-12-27T02:04:21.406Z,990.73
2022-12-27T02:05:21.431Z,990.71
2022-12-27T02:06:21.374Z,990.71
2022-12-27T02:07:21.391Z,990.72
2022-12-27T02:08:21.376Z,990.72
2022-12-27T02:09:21.370Z,990.73
2022-12-27T02:10:21.354Z,990.78
2022-12-27T02:11:21.355Z,990.80
2022-12-27T02:12:21.331Z,990.82
2022-12-27T02:13:21.312Z,990.82
2022-12-27T02:14:26.145Z,990.81
2022-12-27T02:15:21.305Z,990.86
2022-12-27T02:16:21.320Z,990.85
2022-12-27T02:17:21.319Z,990.88
2022-12-27T02:18:21.263Z,990.90
2022-12-27T02:19:21.267Z,990.91
2022-12-27T02:20:21.232Z,990.92
2022-12-27T02:21:21.234Z,990.92
2022-12-27T02:22:21.233Z,990.95
2022-12-27T02:23:21.270Z,990.94
2022-12-27T02:24:21.189Z,990.96
2022-12-27T02:25:21.203Z,990.97
2022-12-27T02:26:21.168Z,990.99
2022-12-27T02:27:21.213Z,991.01
2022-12-27T02:28:21.148Z,991.04
2022-12-27T02:29:21.181Z,991.06
2022-12-27T02:30:21.127Z,991.06
2022-12-27T02:31:21.153Z,991.07
2022-12-27T02:32:21.107Z,991.07
2022-12-27T02:33:21.156Z,991.08
2022-12-27T02:34:21.088Z,991.08
2022-12-27T02:35:21.109Z,991.08
2022-12-27T02:36:21.076Z,991.09
2022-12-27T02:37:21.089Z,991.12
2022-12-27T02:38:21.054Z,991.15
2022-12-27T02:39:21.049Z,991.16
2022-12-27T02:40:21.043Z,991.17
2022-12-27T02:41:21.040Z,991.17
2022-12-27T02:42:21.021Z,991.17
2022-12-27T02:43:21.019Z,991.17
2022-12-27T02:44:20.983Z,991.17
2022-12-27T02:45:21.012Z,991.17
2022-12-27T02:46:21.892Z,991.18
2022-12-27T02:47:20.980Z,991.20
2022-12-27T02:48:20.956Z,991.22
2022-12-27T02:49:20.964Z,991.22
2022-12-27T02:50:20.949Z,991.22
2022-12-27T02:51:20.939Z,991.23
2022-12-27T02:52:20.892Z,991.23
2022-12-27T02:53:20.913Z,991.25
2022-12-27T02:54:20.876Z,991.25
2022-12-27T02:55:20.907Z,991.26
2022-12-27T02:56:20.908Z,991.27
2022-12-27T02:57:20.862Z,991.29
2022-12-27T02:58:20.837Z,991.29
2022-12-27T02:59:20.858Z,991.30
2022-12-27T03:00:20.809Z,991.31
2022-12-27T03:01:20.950Z,991.32
2022-12-27T03:02:21.009Z,991.33
2022-12-27T03:03:20.914Z,991.34
2022-12-27T03:04:20.769Z,991.36
2022-12-27T03:05:20.781Z,991.38
2022-12-27T03:06:20.753Z,991.40
2022-12-27T03:07:20.774Z,991.40
2022-12-27T03:08:20.754Z,991.40
2022-12-27T03:09:20.763Z,991.41
2022-12-27T03:10:20.713Z,991.42
2022-12-27T03:11:20.748Z,991.44
2022-12-27T03:12:20.697Z,991.44
2022-12-27T03:13:20.730Z,991.46
2022-12-27T03:14:20.667Z,991.47
2022-12-27T03:15:20.722Z,991.48
2022-12-27T03:16:20.763Z,991.49
2022-12-27T03:17:20.665Z,991.49
2022-12-27T03:18:20.642Z,991.50
2022-12-27T03:19:20.630Z,991.48
2022-12-27T03:20:20.610Z,991.49
2022-12-27T03:21:20.661Z,991.51
2022-12-27T03:22:20.585Z,991.51
2022-12-27T03:23:20.613Z,991.52
2022-12-27T03:24:20.594Z,991.52
2022-12-27T03:25:20.576Z,991.54
2022-12-27T03:26:20.593Z,991.55
2022-12-27T03:27:20.547Z,991.56
2022-12-27T03:28:20.545Z,991.58
2022-12-27T03:29:20.548Z,991.60
2022-12-27T03:30:20.503Z,991.62
2022-12-27T03:31:20.552Z,991.63
2022-12-27T03:32:20.523Z,991.63
2022-12-27T03:33:20.537Z,991.63
2022-12-27T03:34:20.459Z,991.64
2022-12-27T03:35:20.488Z,991.66
2022-12-27T03:36:20.465Z,991.66
2022-12-27T03:37:20.456Z,991.68
2022-12-27T03:38:20.419Z,991.68
2022-12-27T03:39:20.446Z,991.69
2022-12-27T03:40:20.403Z,991.68
2022-12-27T03:41:20.417Z,991.68
2022-12-27T03:42:20.405Z,991.66
2022-12-27T03:43:20.381Z,991.65
2022-12-27T03:44:20.357Z,991.64
2022-12-27T03:45:20.372Z,991.66
2022-12-27T03:46:20.385Z,991.68
2022-12-27T03:47:20.381Z,991.71
2022-12-27T03:48:20.344Z,991.71
2022-12-27T03:49:20.332Z,991.71
2022-12-27T03:50:20.294Z,991.72
2022-12-27T03:51:20.330Z,991.76
2022-12-27T03:52:20.281Z,991.79
2022-12-27T03:53:20.319Z,991.80
2022-12-27T03:54:20.588Z,991.81
2022-12-27T03:55:20.267Z,991.81
2022-12-27T03:56:20.231Z,991.82
2022-12-27T03:57:20.244Z,991.82
2022-12-27T03:58:20.215Z,991.83
2022-12-27T03:59:20.262Z,991.84
2022-12-27T04:00:20.207Z,991.81
2022-12-27T04:01:20.244Z,991.82
2022-12-27T04:02:20.396Z,991.82
2022-12-27T04:03:20.225Z,991.81
2022-12-27T04:04:20.184Z,991.81
2022-12-27T04:05:20.198Z,991.82
2022-12-27T04:06:20.132Z,991.83
2022-12-27T04:07:20.147Z,991.83
2022-12-27T04:08:20.110Z,991.83
2022-12-27T04:09:20.144Z,991.81
2022-12-27T04:10:20.126Z,991.83
2022-12-27T04:11:20.092Z,991.84
2022-12-27T04:12:20.070Z,991.86
2022-12-27T04:13:20.076Z,991.87
2022-12-27T04:14:20.044Z,991.87
2022-12-27T04:15:20.088Z,991.90
2022-12-27T04:16:20.049Z,991.89
2022-12-27T04:17:20.084Z,991.90
2022-12-27T04:18:20.007Z,991.90
2022-12-27T04:19:20.026Z,991.90
2022-12-27T04:20:19.980Z,991.90
2022-12-27T04:21:20.017Z,991.92
2022-12-27T04:22:19.955Z,991.90
2022-12-27T04:23:19.992Z,991.89
2022-12-27T04:24:19.942Z,991.89
2022-12-27T04:25:19.975Z,991.88
2022-12-27T04:26:19.914Z,991.87
2022-12-27T04:27:19.934Z,991.89
2022-12-27T04:28:19.954Z,991.88
2022-12-27T04:29:19.918Z,991.89
2022-12-27T04:30:19.931Z,991.90
2022-12-27T04:31:20.000Z,991.88
2022-12-27T04:32:19.859Z,991.89
2022-12-27T04:33:19.869Z,991.89
2022-12-27T04:34:19.839Z,991.89
2022-12-27T04:35:19.844Z,991.89
2022-12-27T04:36:19.858Z,991.90
2022-12-27T04:37:19.830Z,991.90
2022-12-27T04:38:19.795Z,991.91
2022-12-27T04:39:19.800Z,991.90
2022-12-27T04:40:19.816Z,991.88
2022-12-27T04:41:19.781Z,991.88
2022-12-27T04:42:19.784Z,991.87
2022-12-27T04:43:19.758Z,991.88
2022-12-27T04:44:19.762Z,991.87
2022-12-27T04:45:19.721Z,991.87
2022-12-27T04:46:19.796Z,991.89
2022-12-27T04:47:19.707Z,991.90
2022-12-27T04:48:19.732Z,991.90
2022-12-27T04:49:19.693Z,991.90
2022-12-27T04:50:19.752Z,991.92
2022-12-27T04:51:19.725Z,991.95
2022-12-27T04:52:19.658Z,991.98
2022-12-27T04:53:19.656Z,992.00
2022-12-27T04:54:19.642Z,992.01
2022-12-27T04:55:19.626Z,992.04
2022-12-27T04:56:19.636Z,992.02
2022-12-27T04:57:19.632Z,992.02
2022-12-27T04:58:19.617Z,992.02
2022-12-27T04:59:19.607Z,992.03
2022-12-27T05:00:19.576Z,992.03
2022-12-27T05:01:19.791Z,992.04
2022-12-27T05:02:19.985Z,992.04
2022-12-27T05:03:19.616Z,992.03
2022-12-27T05:04:19.570Z,992.04
2022-12-27T05:05:19.552Z,992.06
2022-12-27T05:06:19.525Z,992.07
2022-12-27T05:07:19.492Z,992.10
2022-12-27T05:08:19.501Z,992.12
2022-12-27T05:09:23.165Z,992.14
2022-12-27T05:10:19.496Z,992.15
2022-12-27T05:11:19.449Z,992.15
2022-12-27T05:12:19.448Z,992.16
2022-12-27T05:13:19.439Z,992.18
2022-12-27T05:14:19.428Z,992.18
2022-12-27T05:15:19.439Z,992.19
2022-12-27T05:16:19.513Z,992.20
2022-12-27T05:17:19.394Z,992.21
2022-12-27T05:18:19.436Z,992.23
2022-12-27T05:19:19.372Z,992.23
2022-12-27T05:20:19.388Z,992.26
2022-12-27T05:21:19.366Z,992.27
2022-12-27T05:22:19.348Z,992.27
2022-12-27T05:23:19.317Z,992.28
2022-12-27T05:24:19.368Z,992.28
2022-12-27T05:25:19.314Z,992.29
2022-12-27T05:26:19.359Z,992.31
2022-12-27T05:27:19.323Z,992.33
2022-12-27T05:28:19.297Z,992.33
2022-12-27T05:29:19.274Z,992.35
2022-12-27T05:30:19.265Z,992.36
2022-12-27T05:31:19.272Z,992.38
2022-12-27T05:32:19.284Z,992.39
2022-12-27T05:33:19.215Z,992.39
2022-12-27T05:34:19.250Z,992.39
2022-12-27T05:35:19.203Z,992.37
2022-12-27T05:36:19.209Z,992.36
2022-12-27T05:37:19.170Z,992.34
2022-12-27T05:38:19.201Z,992.31
2022-12-27T05:39:19.165Z,992.31
2022-12-27T05:40:19.169Z,992.27
2022-12-27T05:41:19.138Z,992.26
2022-12-27T05:42:19.170Z,992.25
2022-12-27T05:43:19.131Z,992.23
2022-12-27T05:44:19.131Z,992.22
2022-12-27T05:45:19.093Z,992.22
2022-12-27T05:46:19.166Z,992.21
2022-12-27T05:47:19.101Z,992.21
2022-12-27T05:48:19.085Z,992.23
2022-12-27T05:49:19.087Z,992.23
2022-12-27T05:50:19.089Z,992.24
2022-12-27T05:51:19.073Z,992.26
2022-12-27T05:52:19.041Z,992.27
2022-12-27T05:53:19.011Z,992.29
2022-12-27T05:54:19.042Z,992.30
2022-12-27T05:55:19.033Z,992.29
2022-12-27T05:56:19.003Z,992.31
2022-12-27T05:57:18.961Z,992.31
2022-12-27T05:58:18.975Z,992.34
2022-12-27T05:59:18.950Z,992.34
2022-12-27T06:00:18.945Z,992.36
2022-12-27T06:01:18.969Z,992.35
2022-12-27T06:02:19.072Z,992.36
2022-12-27T06:03:19.052Z,992.35
2022-12-27T06:04:18.905Z,992.34
2022-12-27T06:05:18.898Z,992.33
2022-12-27T06:06:18.898Z,992.34
2022-12-27T06:07:18.859Z,992.34
2022-12-27T06:08:18.864Z,992.34
2022-12-27T06:09:18.869Z,992.34
2022-12-27T06:10:18.873Z,992.36
2022-12-27T06:11:18.819Z,992.32
2022-12-27T06:12:18.844Z,992.30
2022-12-27T06:13:18.812Z,992.29
2022-12-27T06:14:18.857Z,992.27
2022-12-27T06:15:18.773Z,992.27
2022-12-27T06:16:18.802Z,992.26
2022-12-27T06:17:18.751Z,992.27
2022-12-27T06:18:18.756Z,992.28
2022-12-27T06:19:18.736Z,992.27
2022-12-27T06:20:18.788Z,992.26
2022-12-27T06:21:18.717Z,992.26
2022-12-27T06:22:18.747Z,992.26
2022-12-27T06:23:18.700Z,992.28
2022-12-27T06:24:18.700Z,992.26
2022-12-27T06:25:18.709Z,992.26
2022-12-27T06:26:18.707Z,992.27
2022-12-27T06:27:18.647Z,992.30
2022-12-27T06:28:18.670Z,992.32
2022-12-27T06:29:18.649Z,992.37
2022-12-27T06:30:18.653Z,992.39
2022-12-27T06:31:18.810Z,992.41
2022-12-27T06:32:18.637Z,992.43
2022-12-27T06:33:18.606Z,992.42
2022-12-27T06:34:18.602Z,992.43
2022-12-27T06:35:18.520Z,992.44
2022-12-27T06:36:18.579Z,992.48
2022-12-27T06:37:18.555Z,992.47
2022-12-27T06:38:18.516Z,992.46
2022-12-27T06:39:18.490Z,992.47
2022-12-27T06:40:18.533Z,992.50
2022-12-27T06:41:18.512Z,992.50
2022-12-27T06:42:18.540Z,992.49
2022-12-27T06:43:18.442Z,992.51
2022-12-27T06:44:18.503Z,992.54
2022-12-27T06:45:18.459Z,992.57
2022-12-27T06:46:18.848Z,992.59
2022-12-27T06:47:18.416Z,992.61
2022-12-27T06:48:18.422Z,992.60
2022-12-27T06:49:18.383Z,992.64
2022-12-27T06:50:18.391Z,992.63
2022-12-27T06:51:18.351Z,992.66
2022-12-27T06:52:18.391Z,992.68
2022-12-27T06:53:18.347Z,992.66
2022-12-27T06:54:18.369Z,992.69
2022-12-27T06:55:18.331Z,992.71
2022-12-27T06:56:18.319Z,992.70
2022-12-27T06:57:18.308Z,992.77
2022-12-27T06:58:18.296Z,992.75
2022-12-27T06:59:18.290Z,992.75
2022-12-27T07:00:18.284Z,992.75
2022-12-27T07:01:18.389Z,992.79
2022-12-27T07:02:18.451Z,992.78
2022-12-27T07:03:18.291Z,992.76
2022-12-27T07:04:18.254Z,992.77
2022-12-27T07:05:18.239Z,992.76
2022-12-27T07:06:18.215Z,992.76
2022-12-27T07:07:18.202Z,992.77
2022-12-27T07:08:18.243Z,992.76
2022-12-27T07:09:18.187Z,992.77
2022-12-27T07:10:18.161Z,992.78
2022-12-27T07:11:18.142Z,992.79
2022-12-27T07:12:18.161Z,992.79
2022-12-27T07:13:18.142Z,992.80
2022-12-27T07:14:18.136Z,992.84
2022-12-27T07:15:18.103Z,992.85
2022-12-27T07:16:18.175Z,992.86
2022-12-27T07:17:18.100Z,992.87
2022-12-27T07:18:18.100Z,992.89
2022-12-27T07:19:18.074Z,992.92
2022-12-27T07:20:18.087Z,992.94
2022-12-27T07:21:18.071Z,992.96
2022-12-27T07:22:18.075Z,992.99
2022-12-27T07:23:19.532Z,992.99
2022-12-27T07:24:18.028Z,992.97
2022-12-27T07:25:17.994Z,992.98
2022-12-27T07:26:18.033Z,993.00
2022-12-27T07:27:17.989Z,992.99
2022-12-27T07:28:17.975Z,992.98
2022-12-27T07:29:17.955Z,993.00
2022-12-27T07:30:17.960Z,993.03
2022-12-27T07:31:17.988Z,993.01
2022-12-27T07:32:17.975Z,993.00
2022-12-27T07:33:17.916Z,993.03
2022-12-27T07:34:18.030Z,993.01
2022-12-27T07:35:17.884Z,993.03
2022-12-27T07:36:17.916Z,993.07
2022-12-27T07:37:17.883Z,993.07
2022-12-27T07:38:17.896Z,993.06
2022-12-27T07:39:17.842Z,993.07
2022-12-27T07:40:17.882Z,993.06
2022-12-27T07:41:17.832Z,993.09
2022-12-27T07:42:17.839Z,993.10
2022-12-27T07:43:17.848Z,993.12
2022-12-27T07:44:17.861Z,993.15
2022-12-27T07:45:17.783Z,993.16
2022-12-27T07:46:17.838Z,993.18
2022-12-27T07:47:17.759Z,993.19
2022-12-27T07:48:18.586Z,993.22
2022-12-27T07:49:20.773Z,993.19
2022-12-27T07:50:17.205Z,993.21
2022-12-27T07:51:19.107Z,993.24
2022-12-27T07:52:17.801Z,993.23
2022-12-27T07:53:19.582Z,993.22
2022-12-27T07:54:18.856Z,993.21
2022-12-27T07:55:18.949Z,993.22
2022-12-27T07:56:23.442Z,993.23
2022-12-27T07:57:17.779Z,993.24
2022-12-27T07:58:20.285Z,993.24
2022-12-27T07:59:18.596Z,993.26
2022-12-27T08:00:17.703Z,993.26
2022-12-27T08:01:17.693Z,993.27
2022-12-27T08:02:17.801Z,993.29
2022-12-27T08:03:17.616Z,993.29
2022-12-27T08:04:17.633Z,993.31
2022-12-27T08:05:20.381Z,993.31
2022-12-27T08:06:17.579Z,993.29
2022-12-27T08:07:17.582Z,993.28
2022-12-27T08:08:17.566Z,993.28
2022-12-27T08:09:17.530Z,993.27
2022-12-27T08:10:17.564Z,993.27
2022-12-27T08:11:17.507Z,993.25
2022-12-27T08:12:17.553Z,993.23
2022-12-27T08:13:17.495Z,993.25
2022-12-27T08:14:17.504Z,993.29
2022-12-27T08:15:17.484Z,993.29
2022-12-27T08:16:17.552Z,993.30
2022-12-27T08:17:17.459Z,993.32
2022-12-27T08:18:17.489Z,993.32
2022-12-27T08:19:17.438Z,993.29
2022-12-27T08:20:17.451Z,993.29
2022-12-27T08:21:17.401Z,993.28
2022-12-27T08:22:17.433Z,993.28
2022-12-27T08:23:17.443Z,993.26
2022-12-27T08:24:17.420Z,993.27
2022-12-27T08:25:17.374Z,993.26
2022-12-27T08:26:17.382Z,993.25
2022-12-27T08:27:17.349Z,993.24
2022-12-27T08:28:17.352Z,993.24
2022-12-27T08:29:17.361Z,993.23
2022-12-27T08:30:17.323Z,993.25
2022-12-27T08:31:17.369Z,993.26
2022-12-27T08:32:17.339Z,993.26
2022-12-27T08:33:17.287Z,993.25
2022-12-27T08:34:17.322Z,993.23
2022-12-27T08:35:51.110Z,993.22
2022-12-27T08:37:16.247Z,993.22
2022-12-27T08:38:17.249Z,993.20
2022-12-27T08:39:17.232Z,993.20
2022-12-27T08:40:17.244Z,993.21
2022-12-27T08:41:17.199Z,993.22
2022-12-27T08:42:17.217Z,993.22
2022-12-27T08:43:17.198Z,993.22
2022-12-27T08:44:17.209Z,993.23
2022-12-27T08:45:17.160Z,993.26
2022-12-27T08:46:17.188Z,993.25
2022-12-27T08:47:17.136Z,993.25
2022-12-27T08:48:17.193Z,993.26
2022-12-27T08:49:17.165Z,993.26
2022-12-27T08:50:17.148Z,993.27
2022-12-27T08:51:28.430Z,993.31
2022-12-27T08:52:17.101Z,993.29
2022-12-27T08:53:17.068Z,993.32
2022-12-27T08:54:17.075Z,993.33
2022-12-27T08:55:17.082Z,993.34
2022-12-27T08:56:17.082Z,993.33
2022-12-27T08:57:17.072Z,993.36
2022-12-27T08:58:17.044Z,993.39
2022-12-27T08:59:17.034Z,993.40
2022-12-27T09:00:17.007Z,993.40
2022-12-27T09:01:17.195Z,993.42
2022-12-27T09:02:17.215Z,993.45
2022-12-27T09:03:17.007Z,993.47
2022-12-27T09:04:16.957Z,993.51
2022-12-27T09:05:16.976Z,993.54
2022-12-27T09:06:16.966Z,993.52
2022-12-27T09:07:16.981Z,993.54
2022-12-27T09:08:16.938Z,993.55
2022-12-27T09:09:16.928Z,993.56
2022-12-27T09:10:16.897Z,993.59
2022-12-27T09:11:16.913Z,993.60
2022-12-27T09:12:16.876Z,993.59
2022-12-27T09:13:16.903Z,993.59
2022-12-27T09:14:16.848Z,993.59
2022-12-27T09:15:16.869Z,993.58
2022-12-27T09:16:16.941Z,993.59
2022-12-27T09:17:16.833Z,993.60
2022-12-27T09:18:16.847Z,993.63
2022-12-27T09:19:16.830Z,993.68
2022-12-27T09:20:16.796Z,993.68
2022-12-27T09:21:17.009Z,993.69
2022-12-27T09:22:16.786Z,993.74
2022-12-27T09:23:16.796Z,993.74
2022-12-27T09:24:16.784Z,993.74
2022-12-27T09:25:16.795Z,993.74
2022-12-27T09:26:16.755Z,993.74
2022-12-27T09:27:16.755Z,993.74
2022-12-27T09:28:16.738Z,993.75
2022-12-27T09:29:16.748Z,993.77
2022-12-27T09:30:16.686Z,993.79
2022-12-27T09:31:16.722Z,993.77
2022-12-27T09:32:16.668Z,993.77
2022-12-27T09:33:16.693Z,993.79
2022-12-27T09:34:16.689Z,993.83
2022-12-27T09:35:16.681Z,993.81
2022-12-27T09:36:16.640Z,993.84
2022-12-27T09:37:16.634Z,993.83
2022-12-27T09:38:16.602Z,993.86
2022-12-27T09:39:16.637Z,993.87
2022-12-27T09:40:16.615Z,993.90
2022-12-27T09:41:40.883Z,993.91
2022-12-27T09:42:48.465Z,993.90
2022-12-27T09:43:27.714Z,993.91
2022-12-27T09:44:16.972Z,993.91
2022-12-27T09:45:16.577Z,993.93
2022-12-27T09:46:16.531Z,993.93
2022-12-27T09:47:16.537Z,993.93
2022-12-27T09:48:16.510Z,993.96
2022-12-27T09:49:16.504Z,993.96
2022-12-27T09:50:16.471Z,993.97
2022-12-27T09:51:16.539Z,993.97
2022-12-27T09:52:16.458Z,993.97
2022-12-27T09:53:16.463Z,994.00
2022-12-27T09:54:16.446Z,993.97
2022-12-27T09:55:16.464Z,994.00
2022-12-27T09:56:16.427Z,994.01
2022-12-27T09:57:20.663Z,993.99
2022-12-27T09:58:16.408Z,993.98
2022-12-27T09:59:16.384Z,993.97
2022-12-27T10:00:16.406Z,993.93
2022-12-27T10:01:16.553Z,993.93
2022-12-27T10:02:16.453Z,993.91
2022-12-27T10:03:16.358Z,993.91
2022-12-27T10:04:16.337Z,993.93
2022-12-27T10:05:21.261Z,993.95
2022-12-27T10:06:16.335Z,993.94
2022-12-27T10:07:16.338Z,993.91
2022-12-27T10:08:16.278Z,993.89
2022-12-27T10:09:16.281Z,993.90
2022-12-27T10:10:16.251Z,993.90
2022-12-27T10:11:16.270Z,993.88
2022-12-27T10:12:16.265Z,993.86
2022-12-27T10:13:16.258Z,993.85
2022-12-27T10:14:16.226Z,993.84
2022-12-27T10:15:16.221Z,993.80
2022-12-27T10:16:16.267Z,993.79
2022-12-27T10:17:16.198Z,993.79
2022-12-27T10:18:16.212Z,993.76
2022-12-27T10:19:16.211Z,993.76
2022-12-27T10:20:16.147Z,993.82
2022-12-27T10:21:16.152Z,993.82
2022-12-27T10:22:16.127Z,993.81
2022-12-27T10:23:16.172Z,993.81
2022-12-27T10:24:16.119Z,993.79
2022-12-27T10:25:16.112Z,993.78
2022-12-27T10:26:16.083Z,993.76
2022-12-27T10:27:16.108Z,993.72
2022-12-27T10:28:16.058Z,993.73
2022-12-27T10:29:16.103Z,993.72
2022-12-27T10:30:16.055Z,993.70
2022-12-27T10:31:16.132Z,993.71
2022-12-27T10:32:16.035Z,993.70
2022-12-27T10:33:16.041Z,993.71
2022-12-27T10:34:16.027Z,993.73
2022-12-27T10:35:16.051Z,993.71
2022-12-27T10:36:16.000Z,993.70
2022-12-27T10:37:16.004Z,993.71
2022-12-27T10:38:15.968Z,993.69
2022-12-27T10:39:15.973Z,993.67
2022-12-27T10:40:15.958Z,993.67
2022-12-27T10:41:15.958Z,993.65
2022-12-27T10:42:15.915Z,993.62
2022-12-27T10:43:15.918Z,993.60
2022-12-27T10:44:15.899Z,993.62
2022-12-27T10:45:15.949Z,993.61
2022-12-27T10:46:15.939Z,993.61
2022-12-27T10:47:15.876Z,993.64
2022-12-27T10:48:15.846Z,993.61
2022-12-27T10:49:22.980Z,993.63
2022-12-27T10:50:15.833Z,993.59
2022-12-27T10:51:15.868Z,993.56
2022-12-27T10:52:15.806Z,993.55
2022-12-27T10:53:15.806Z,993.53
2022-12-27T10:54:15.806Z,993.50
2022-12-27T10:55:15.789Z,993.54
2022-12-27T10:56:15.791Z,993.53
2022-12-27T10:57:15.811Z,993.56
2022-12-27T10:58:15.746Z,993.57
2022-12-27T10:59:15.773Z,993.55
2022-12-27T11:00:15.725Z,993.55
2022-12-27T11:01:15.915Z,993.60
2022-12-27T11:02:15.819Z,993.53
2022-12-27T11:03:15.717Z,993.52
2022-12-27T11:04:20.282Z,993.52
2022-12-27T11:05:15.697Z,993.49
2022-12-27T11:06:15.666Z,993.47
2022-12-27T11:07:15.661Z,993.44
2022-12-27T11:08:15.656Z,993.43
2022-12-27T11:09:15.655Z,993.40
2022-12-27T11:10:15.618Z,993.39
2022-12-27T11:11:15.620Z,993.39
2022-12-27T11:12:15.587Z,993.38
2022-12-27T11:13:15.668Z,993.38
2022-12-27T11:14:15.569Z,993.39
2022-12-27T11:15:15.581Z,993.36
2022-12-27T11:16:15.584Z,993.37
2022-12-27T11:17:15.557Z,993.39
2022-12-27T11:18:15.556Z,993.35
2022-12-27T11:19:15.543Z,993.41
2022-12-27T11:20:15.526Z,993.38
2022-12-27T11:21:24.092Z,993.39
2022-12-27T11:22:15.492Z,993.38
2022-12-27T11:23:15.513Z,993.39
2022-12-27T11:24:15.501Z,993.36
2022-12-27T11:25:15.496Z,993.37
2022-12-27T11:26:15.497Z,993.40
2022-12-27T11:27:15.458Z,993.38
2022-12-27T11:28:15.422Z,993.39
2022-12-27T11:29:15.448Z,993.40
2022-12-27T11:30:15.445Z,993.40
2022-12-27T11:31:15.472Z,993.38
2022-12-27T11:32:15.393Z,993.43
2022-12-27T11:33:19.618Z,993.40
2022-12-27T11:34:15.368Z,993.41
2022-12-27T11:35:15.366Z,993.42
2022-12-27T11:36:15.354Z,993.43
2022-12-27T11:37:15.355Z,993.41
2022-12-27T11:38:15.322Z,993.41
2022-12-27T11:39:15.326Z,993.39
2022-12-27T11:40:15.403Z,993.38
2022-12-27T11:41:15.345Z,993.36
2022-12-27T11:42:15.317Z,993.32
2022-12-27T11:43:15.298Z,993.31
2022-12-27T11:44:15.283Z,993.30
2022-12-27T11:45:15.252Z,993.30
2022-12-27T11:46:15.275Z,993.28
2022-12-27T11:47:15.277Z,993.30
2022-12-27T11:48:15.205Z,993.28
2022-12-27T11:49:15.228Z,993.28
2022-12-27T11:50:15.344Z,993.28
2022-12-27T11:51:15.213Z,993.24
2022-12-27T11:52:15.199Z,993.24
2022-12-27T11:53:15.199Z,993.24
2022-12-27T11:54:15.163Z,993.23
2022-12-27T11:55:15.165Z,993.22
2022-12-27T11:56:15.166Z,993.19
2022-12-27T11:57:15.152Z,993.23
2022-12-27T11:58:15.122Z,993.24
2022-12-27T11:59:15.107Z,993.24
2022-12-27T12:00:15.144Z,993.26
2022-12-27T12:01:15.132Z,993.25
2022-12-27T12:02:15.220Z,993.25
2022-12-27T12:03:15.137Z,993.27
2022-12-27T12:04:15.077Z,993.28
2022-12-27T12:05:15.055Z,993.29
2022-12-27T12:06:15.012Z,993.27
2022-12-27T12:07:15.034Z,993.28
2022-12-27T12:08:14.995Z,993.28
2022-12-27T12:09:15.044Z,993.27
2022-12-27T12:10:14.983Z,993.26
2022-12-27T12:11:14.991Z,993.27
2022-12-27T12:12:14.952Z,993.26
2022-12-27T12:13:14.960Z,993.24
2022-12-27T12:14:14.950Z,993.24
2022-12-27T12:15:14.933Z,993.24
2022-12-27T12:16:14.926Z,993.25
2022-12-27T12:17:14.920Z,993.24
2022-12-27T12:18:14.886Z,993.22
2022-12-27T12:19:14.902Z,993.22
2022-12-27T12:20:14.882Z,993.22
2022-12-27T12:21:14.899Z,993.22
2022-12-27T12:22:14.844Z,993.19
2022-12-27T12:23:14.863Z,993.19
2022-12-27T12:24:14.835Z,993.18
2022-12-27T12:25:14.826Z,993.18
2022-12-27T12:26:14.825Z,993.17
2022-12-27T12:27:14.815Z,993.19
2022-12-27T12:28:47.319Z,993.22
2022-12-27T12:29:14.843Z,993.18